createdAt,value
2023-02-13T00:01:12.974Z,14.73
2023-02-13T00:06:18.424Z,15.33
2023-02-13T00:11:22.939Z,14.13
2023-02-13T00:16:31.004Z,13.90
2023-02-13T00:21:35.090Z,14.27
2023-02-13T00:26:40.631Z,14.37
2023-02-13T00:31:47.434Z,15.87
2023-02-13T00:36:55.516Z,15.70
2023-02-13T00:42:00.329Z,13.13
2023-02-13T00:47:12.270Z,14.07
2023-02-13T00:52:17.450Z,12.60
2023-02-13T00:57:24.717Z,12.50
2023-02-13T01:02:30.801Z,15.30
2023-02-13T01:07:34.847Z,14.87
2023-02-13T01:12:43.035Z,17.90
2023-02-13T01:17:55.007Z,14.50
2023-02-13T01:23:02.185Z,14.73
2023-02-13T01:28:08.480Z,13.87
2023-02-13T01:33:17.405Z,13.40
2023-02-13T01:38:23.209Z,15.27
2023-02-13T01:43:45.652Z,17.43
2023-02-13T01:48:56.508Z,20.53
2023-02-13T01:54:05.552Z,17.73
2023-02-13T01:59:19.629Z,19.00
2023-02-13T02:04:29.385Z,15.30
2023-02-13T02:09:39.649Z,16.17
2023-02-13T02:14:45.637Z,15.17
2023-02-13T02:20:03.630Z,12.80
2023-02-13T02:25:42.347Z,15.03
2023-02-13T02:31:25.706Z,16.30
2023-02-13T02:36:46.196Z,16.37
2023-02-13T02:42:00.378Z,17.23
2023-02-13T02:47:28.919Z,14.30
2023-02-13T02:52:45.975Z,16.27
2023-02-13T02:58:15.643Z,14.73
2023-02-13T03:03:40.768Z,15.07
2023-02-13T03:09:11.892Z,15.43
2023-02-13T03:14:21.694Z,13.30
2023-02-13T03:20:05.089Z,12.43
2023-02-13T03:25:34.744Z,14.93
2023-02-13T03:30:58.823Z,12.33
2023-02-13T03:36:29.177Z,14.80
2023-02-13T03:41:42.854Z,9.97
2023-02-13T03:46:50.858Z,10.17
2023-02-13T03:52:02.576Z,10.20
2023-02-13T03:57:26.444Z,9.90
2023-02-13T04:02:35.334Z,5.93
2023-02-13T04:07:41.153Z,6.43
2023-02-13T04:12:56.216Z,6.30
2023-02-13T04:18:10.611Z,6.03
2023-02-13T04:23:17.416Z,8.47
2023-02-13T04:28:28.493Z,7.70
2023-02-13T04:33:32.038Z,6.83
2023-02-13T04:38:37.026Z,6.33
2023-02-13T04:43:46.262Z,6.80
2023-02-13T04:48:56.720Z,4.87
2023-02-13T04:54:04.594Z,6.83
2023-02-13T04:59:13.685Z,8.47
2023-02-13T05:04:34.370Z,7.73
2023-02-13T05:09:43.709Z,8.20
2023-02-13T05:14:51.822Z,6.43
2023-02-13T05:19:56.465Z,7.63
2023-02-13T05:25:01.609Z,6.67
2023-02-13T05:30:32.341Z,7.83
2023-02-13T05:35:40.352Z,6.23
2023-02-13T05:40:46.641Z,8.07
2023-02-13T05:46:03.774Z,7.33
2023-02-13T05:51:09.386Z,7.70
2023-02-13T05:56:22.318Z,7.63
2023-02-13T06:01:27.933Z,8.70
2023-02-13T06:06:33.049Z,7.97
2023-02-13T06:11:37.624Z,7.50
2023-02-13T06:16:46.981Z,8.57
2023-02-13T06:21:59.806Z,8.40
2023-02-13T06:27:07.899Z,7.77
2023-02-13T06:32:20.715Z,8.73
2023-02-13T06:37:32.843Z,9.03
2023-02-13T06:42:37.180Z,8.73
2023-02-13T06:47:53.617Z,10.13
2023-02-13T06:53:00.911Z,7.97
2023-02-13T06:58:11.233Z,7.43
2023-02-13T07:03:19.849Z,7.83
2023-02-13T07:08:25.404Z,8.20
2023-02-13T07:13:33.091Z,9.33
2023-02-13T07:18:44.778Z,6.43
2023-02-13T07:23:51.099Z,7.93
2023-02-13T07:29:11.195Z,6.87
2023-02-13T07:34:21.712Z,6.77
2023-02-13T07:39:27.424Z,6.97
2023-02-13T07:44:35.520Z,5.93
2023-02-13T07:49:47.365Z,6.10
2023-02-13T07:54:55.078Z,7.57
2023-02-13T08:00:00.590Z,7.73
2023-02-13T08:05:08.999Z,8.00
2023-02-13T08:10:46.093Z,6.10
2023-02-13T08:15:51.424Z,6.93
2023-02-13T08:20:59.027Z,6.73
2023-02-13T08:26:10.442Z,6.60
2023-02-13T08:31:22.311Z,6.10
2023-02-13T08:36:28.251Z,5.60
2023-02-13T08:41:37.167Z,5.93
2023-02-13T08:46:42.197Z,5.80
2023-02-13T08:52:02.222Z,7.07
2023-02-13T08:57:07.621Z,5.60
2023-02-13T09:02:16.275Z,6.80
2023-02-13T09:07:25.480Z,6.80
2023-02-13T09:12:29.595Z,6.10
2023-02-13T09:17:37.118Z,6.33
2023-02-13T09:22:43.609Z,6.67
2023-02-13T09:27:53.791Z,6.33
2023-02-13T09:33:04.241Z,7.10
2023-02-13T09:38:18.153Z,7.33
2023-02-13T09:43:36.893Z,6.90
2023-02-13T09:48:45.733Z,7.87
2023-02-13T09:53:58.442Z,7.33
2023-02-13T09:59:09.696Z,6.37
2023-02-13T10:04:32.610Z,6.53
2023-02-13T10:09:43.902Z,7.77
2023-02-13T10:15:04.587Z,8.00
2023-02-13T10:20:23.903Z,5.87
2023-02-13T10:25:34.599Z,7.63
2023-02-13T10:30:58.910Z,7.80
2023-02-13T10:36:10.567Z,5.27
2023-02-13T10:41:30.321Z,3.97
2023-02-13T10:46:45.321Z,4.07
2023-02-13T10:51:59.916Z,3.83
2023-02-13T10:57:21.259Z,3.90
2023-02-13T11:02:30.690Z,3.93
2023-02-13T11:07:39.498Z,4.17
2023-02-13T11:12:53.557Z,2.60
2023-02-13T11:18:18.544Z,2.20
2023-02-13T11:23:38.268Z,3.83
2023-02-13T11:28:52.743Z,2.60
2023-02-13T11:33:59.849Z,2.50
2023-02-13T11:39:13.253Z,3.50
2023-02-13T11:44:28.537Z,3.40
2023-02-13T11:49:36.327Z,5.40
2023-02-13T11:54:45.020Z,2.40
2023-02-13T11:59:59.143Z,2.90
2023-02-13T12:05:24.961Z,4.10
2023-02-13T12:10:37.621Z,2.10
2023-02-13T12:15:53.272Z,2.40
2023-02-13T12:21:12.045Z,2.90
2023-02-13T12:26:37.250Z,2.60
2023-02-13T12:37:45.592Z,4.67
2023-02-13T12:43:02.711Z,4.60
2023-02-13T12:48:17.057Z,3.53
2023-02-13T12:53:37.545Z,4.57
2023-02-13T12:59:00.805Z,3.73
2023-02-13T13:04:17.300Z,3.83
2023-02-13T13:09:42.384Z,3.53
2023-02-13T13:14:54.951Z,3.43
2023-02-13T13:20:07.421Z,4.00
2023-02-13T13:25:22.275Z,3.30
2023-02-13T13:30:29.650Z,4.03
2023-02-13T13:35:36.470Z,4.50
2023-02-13T13:46:16.652Z,3.73
2023-02-13T13:51:21.534Z,3.97
2023-02-13T13:56:24.776Z,4.77
2023-02-13T14:01:31.667Z,7.43
2023-02-13T14:07:07.341Z,5.70
2023-02-13T14:12:39.736Z,5.07
2023-02-13T14:17:54.805Z,4.40
2023-02-13T14:23:07.345Z,8.23
2023-02-13T14:28:22.498Z,5.47
2023-02-13T14:33:32.571Z,6.03
2023-02-13T14:38:37.649Z,5.27
2023-02-13T14:43:54.849Z,4.93
2023-02-13T14:49:03.621Z,6.97
2023-02-13T14:54:17.036Z,6.60
2023-02-13T14:59:24.513Z,5.37
2023-02-13T15:04:32.536Z,7.97
2023-02-13T15:09:40.098Z,7.17
2023-02-13T15:14:43.173Z,7.03
2023-02-13T15:19:51.401Z,4.87
2023-02-13T15:24:54.710Z,5.63
2023-02-13T15:30:00.811Z,5.27
2023-02-13T15:35:22.794Z,5.40
2023-02-13T15:40:28.255Z,6.03
2023-02-13T15:45:32.255Z,5.20
2023-02-13T15:50:37.368Z,5.30
2023-02-13T15:55:40.504Z,7.07
2023-02-13T16:00:44.879Z,5.73
2023-02-13T16:05:51.040Z,4.87
2023-02-13T16:11:19.089Z,5.40
2023-02-13T16:16:24.090Z,4.97
2023-02-13T16:21:31.588Z,6.20
2023-02-13T16:26:39.322Z,5.87
2023-02-13T16:31:42.659Z,5.97
2023-02-13T16:36:47.307Z,5.43
2023-02-13T16:41:50.936Z,7.90
2023-02-13T16:46:57.728Z,6.10
2023-02-13T16:52:12.997Z,6.30
2023-02-13T16:57:23.622Z,6.20
2023-02-13T17:02:28.260Z,6.47
2023-02-13T17:07:37.350Z,6.13
2023-02-13T17:12:40.875Z,5.50
2023-02-13T17:17:45.143Z,5.63
2023-02-13T17:22:52.250Z,6.77
2023-02-13T17:27:57.265Z,5.77
2023-02-13T17:33:05.859Z,4.97
2023-02-13T17:38:12.234Z,6.00
2023-02-13T17:43:17.062Z,7.43
2023-02-13T17:48:25.992Z,5.67
2023-02-13T17:53:31.805Z,6.33
2023-02-13T17:58:36.436Z,6.17
2023-02-13T18:03:40.526Z,5.90
2023-02-13T18:08:45.196Z,7.63
2023-02-13T18:13:49.006Z,8.10
2023-02-13T18:19:00.509Z,7.77
2023-02-13T18:24:06.191Z,7.73
2023-02-13T18:29:09.291Z,7.67
2023-02-13T18:34:12.778Z,7.23
2023-02-13T18:39:18.053Z,9.67
2023-02-13T18:44:39.618Z,9.77
2023-02-13T18:49:45.620Z,8.17
2023-02-13T18:54:51.628Z,8.73
2023-02-13T18:59:55.142Z,9.63
2023-02-13T19:05:07.601Z,10.03
2023-02-13T19:10:12.926Z,8.70
2023-02-13T19:15:16.638Z,11.03
2023-02-13T19:20:32.590Z,13.17
2023-02-13T19:25:40.302Z,8.57
2023-02-13T19:30:47.831Z,9.60
2023-02-13T19:35:58.802Z,8.53
2023-02-13T19:41:05.946Z,9.77
2023-02-13T19:46:22.059Z,9.03
2023-02-13T19:51:55.097Z,10.07
2023-02-13T19:57:01.609Z,10.93
2023-02-13T20:02:21.604Z,11.67
2023-02-13T20:07:28.837Z,10.10
2023-02-13T20:12:37.142Z,8.53
2023-02-13T20:17:49.356Z,9.67
2023-02-13T20:22:55.199Z,11.53
2023-02-13T20:28:12.986Z,9.70
2023-02-13T20:33:26.911Z,12.57
2023-02-13T20:38:30.581Z,17.03
2023-02-13T20:43:35.159Z,16.07
2023-02-13T20:48:38.386Z,19.17
2023-02-13T20:53:42.973Z,12.53
2023-02-13T20:58:49.209Z,16.57
2023-02-13T21:03:54.963Z,19.17
2023-02-13T21:08:58.260Z,18.37
2023-02-13T21:14:03.669Z,19.10
2023-02-13T21:19:08.686Z,16.60
2023-02-13T21:24:14.862Z,17.60
2023-02-13T21:29:19.707Z,15.30
2023-02-13T21:34:22.833Z,15.60
2023-02-13T21:39:26.019Z,16.47
2023-02-13T21:44:30.568Z,12.80
2023-02-13T21:49:33.724Z,15.40
2023-02-13T21:54:36.795Z,15.27
2023-02-13T21:59:41.493Z,13.67
2023-02-13T22:04:44.858Z,14.03
2023-02-13T22:09:48.080Z,14.30
2023-02-13T22:14:52.643Z,15.57
2023-02-13T22:19:55.905Z,13.40
2023-02-13T22:24:59.096Z,12.87
2023-02-13T22:30:03.837Z,12.43
2023-02-13T22:35:09.589Z,13.13
2023-02-13T22:40:13.378Z,14.83
2023-02-13T22:45:18.256Z,11.90
2023-02-13T22:50:21.634Z,14.93
2023-02-13T22:55:24.794Z,14.53
2023-02-13T23:00:30.030Z,14.33
2023-02-13T23:05:33.139Z,15.27
2023-02-13T23:10:36.419Z,15.97
2023-02-13T23:15:47.229Z,15.30
2023-02-13T23:20:50.525Z,16.33
2023-02-13T23:25:53.651Z,15.77
2023-02-13T23:30:59.052Z,20.23
2023-02-13T23:36:02.460Z,18.37
2023-02-13T23:41:09.121Z,16.90
2023-02-13T23:46:13.791Z,18.23
2023-02-13T23:51:18.533Z,16.33
2023-02-13T23:56:21.798Z,18.23
